KBLU/BLU METAR and TAF weather

Enter ICAO airport designator
Station Type Date Time Source
KBLU METAR 2018/12/10 19:52 UTC NOAA

KBLU 101952Z AUTO 00000KT 10SM FEW020 SCT043 BKN090 06/M03 A3019 RMK AO2 SLP209 T00611033 $


Station Type Date Time Source
KBLU Decoded METAR 2018/12/10 19:52 UTC NOAA

BLUE CANYON AIRPORT, CA, United States (KBLU) 39-17N 120-42W 1609M
Dec 10, 2018 - 02:52 PM EST / 2018.12.10 1952 UTC
Wind: Calm:0
Visibility: 10 mile(s):0
Sky conditions: mostly cloudy
Temperature: 43.0 F (6.1 C)
Dew Point: 26.1 F (-3.3 C)
Relative Humidity: 50%
Pressure (altimeter): 30.19 in. Hg (1022 hPa)
ob: KBLU 101952Z AUTO 00000KT 10SM FEW020 SCT043 BKN090 06/M03 A3019 RMK AO2 SLP209 T00611033
cycle: 20

Station Type Date Time Source
KBLU TAF UTC NOAA

Error!


Example: see airport list